Terminal Aerodrome Forecast
Issued by NWS Boston, MA

Home | Current Version | Previous Version | Text Only | Print | Product List | Glossary On
Versions: 1 2 3 4 5 6 7 8 9 10 11 12 13 14 15 16 17 18 19 20 21 22 23 24 25 26 27 28 29 30 31 32 33 34 35 36 37 38
000
FTUS41 KBOX 241129
TAFBDL
TAF
KBDL 241129Z 2412/2518 02006KT P6SM -SHRA SCT025 BKN050
     FM241300 03005KT P6SM VCSH BKN020
     FM242000 36005KT P6SM VCSH OVC045
     FM250000 27005KT P6SM BKN080
     FM250800 VRB03KT 5SM BR SCT250
     FM250900 VRB03KT P6SM SCT250
     FM251600 23008KT P6SM FEW150=

USA.gov is the U.S. government's official web portal to all federal, state and local government web resources and services.